createdAt,value
2022-09-07T00:01:24.417Z,74.77
2022-09-07T00:03:59.614Z,74.80
2022-09-07T00:06:28.554Z,74.69
2022-09-07T00:08:57.736Z,74.66
2022-09-07T00:11:26.562Z,74.69
2022-09-07T00:13:55.941Z,74.77
2022-09-07T00:16:31.784Z,74.74
2022-09-07T00:19:03.508Z,74.75
2022-09-07T00:21:33.091Z,74.63
2022-09-07T00:24:01.933Z,74.47
2022-09-07T00:26:32.421Z,74.12
2022-09-07T00:29:03.458Z,74.42
2022-09-07T00:31:32.887Z,74.21
2022-09-07T00:34:03.348Z,74.05
2022-09-07T00:36:32.286Z,74.00
2022-09-07T00:39:01.053Z,73.90
2022-09-07T00:41:29.858Z,73.88
2022-09-07T00:44:19.909Z,73.85
2022-09-07T00:46:48.762Z,73.75
2022-09-07T00:49:22.238Z,73.82
2022-09-07T00:51:55.765Z,73.82
2022-09-07T00:54:34.937Z,73.70
2022-09-07T00:57:03.883Z,73.89
2022-09-07T00:59:48.160Z,73.95
2022-09-07T01:02:18.794Z,73.61
2022-09-07T01:04:52.569Z,73.58
2022-09-07T01:07:21.430Z,73.17
2022-09-07T01:09:51.680Z,73.05
2022-09-07T01:12:20.682Z,73.23
2022-09-07T01:14:52.860Z,73.27
2022-09-07T01:17:59.840Z,73.38
2022-09-07T01:20:51.076Z,73.48
2022-09-07T01:23:34.128Z,73.09
2022-09-07T01:26:24.190Z,73.43
2022-09-07T01:29:07.283Z,73.29
2022-09-07T01:32:06.273Z,72.97
2022-09-07T01:34:35.054Z,72.46
2022-09-07T01:37:20.629Z,72.50
2022-09-07T01:39:57.556Z,72.23
2022-09-07T01:42:31.857Z,71.97
2022-09-07T01:45:11.957Z,71.92
2022-09-07T01:47:52.963Z,71.65
2022-09-07T01:51:03.310Z,71.87
2022-09-07T01:53:32.168Z,71.55
2022-09-07T01:56:09.509Z,71.61
2022-09-07T01:58:52.493Z,71.06
2022-09-07T02:01:54.813Z,71.24
2022-09-07T02:04:32.157Z,71.32
2022-09-07T02:07:10.010Z,71.19
2022-09-07T02:10:04.304Z,71.17
2022-09-07T02:12:46.062Z,70.84
2022-09-07T02:15:25.703Z,70.73
2022-09-07T02:17:59.160Z,70.02
2022-09-07T02:20:36.207Z,69.82
2022-09-07T02:23:12.210Z,69.82
2022-09-07T02:25:48.803Z,69.68
2022-09-07T02:28:23.175Z,69.84
2022-09-07T02:30:52.169Z,69.76
2022-09-07T02:33:21.168Z,69.74
2022-09-07T02:35:50.537Z,69.62
2022-09-07T02:38:20.170Z,69.17
2022-09-07T02:40:56.998Z,69.58
2022-09-07T02:43:26.488Z,69.06
2022-09-07T02:45:55.539Z,68.94
2022-09-07T02:48:40.400Z,68.85
2022-09-07T02:51:12.242Z,68.44
2022-09-07T02:54:14.359Z,68.50
2022-09-07T02:56:57.667Z,68.35
2022-09-07T02:59:38.389Z,67.47
2022-09-07T03:02:36.583Z,67.93
2022-09-07T03:05:21.171Z,67.91
2022-09-07T03:08:05.125Z,67.83
2022-09-07T03:10:34.843Z,67.31
2022-09-07T03:13:03.874Z,66.53
2022-09-07T03:15:32.709Z,66.04
2022-09-07T03:18:01.630Z,65.50
2022-09-07T03:20:30.436Z,64.31
2022-09-07T03:22:59.176Z,64.89
2022-09-07T03:25:27.972Z,64.82
2022-09-07T03:27:57.491Z,64.90
2022-09-07T03:30:26.271Z,64.63
2022-09-07T03:32:55.041Z,64.64
2022-09-07T03:35:23.914Z,64.97
2022-09-07T03:37:52.790Z,64.81
2022-09-07T03:40:21.559Z,65.08
2022-09-07T03:42:51.415Z,64.88
2022-09-07T03:45:20.603Z,64.03
2022-09-07T03:47:50.300Z,64.73
2022-09-07T03:50:19.153Z,64.81
2022-09-07T03:52:47.952Z,64.47
2022-09-07T03:55:16.816Z,64.06
2022-09-07T03:57:45.598Z,64.10
2022-09-07T04:00:15.410Z,63.45
2022-09-07T04:02:44.314Z,63.00
2022-09-07T04:05:13.166Z,62.00
2022-09-07T04:07:41.968Z,60.73
2022-09-07T04:10:10.841Z,61.19
2022-09-07T04:12:40.295Z,61.37
2022-09-07T04:15:09.700Z,60.79
2022-09-07T04:17:38.412Z,60.73
2022-09-07T04:20:07.987Z,59.60
2022-09-07T04:22:36.740Z,59.60
2022-09-07T04:25:05.944Z,59.86
2022-09-07T04:27:34.706Z,60.15
2022-09-07T04:30:03.481Z,60.61
2022-09-07T04:32:32.170Z,60.83
2022-09-07T04:35:00.921Z,60.94
2022-09-07T04:37:31.252Z,60.82
2022-09-07T04:40:00.083Z,60.83
2022-09-07T04:42:28.917Z,60.00
2022-09-07T04:44:57.982Z,60.46
2022-09-07T04:47:26.919Z,60.49
2022-09-07T04:49:55.915Z,60.85
2022-09-07T04:52:25.372Z,61.42
2022-09-07T04:54:54.160Z,61.80
2022-09-07T04:57:26.406Z,62.27
2022-09-07T04:59:55.678Z,62.92
2022-09-07T05:02:25.178Z,62.98
2022-09-07T05:04:54.074Z,63.09
2022-09-07T05:07:22.962Z,62.90
2022-09-07T05:09:51.839Z,63.08
2022-09-07T05:12:21.278Z,63.68
2022-09-07T05:14:50.215Z,63.71
2022-09-07T05:17:19.904Z,63.43
2022-09-07T05:19:49.420Z,63.62
2022-09-07T05:22:18.289Z,63.66
2022-09-07T05:24:48.788Z,63.45
2022-09-07T05:27:17.909Z,63.90
2022-09-07T05:30:03.979Z,64.21
2022-09-07T05:32:33.918Z,64.38
2022-09-07T05:35:02.650Z,64.64
2022-09-07T05:37:31.551Z,64.31
2022-09-07T05:40:00.367Z,64.37
2022-09-07T05:42:29.218Z,64.27
2022-09-07T05:44:58.524Z,64.61
2022-09-07T05:47:28.442Z,64.53
2022-09-07T05:49:57.386Z,64.61
2022-09-07T05:52:26.384Z,64.59
2022-09-07T05:55:07.488Z,64.52
2022-09-07T05:57:44.053Z,64.30
2022-09-07T06:00:15.112Z,64.60
2022-09-07T06:02:44.079Z,64.87
2022-09-07T06:05:13.012Z,64.56
2022-09-07T06:07:41.965Z,64.67
2022-09-07T06:12:59.486Z,64.95
2022-09-07T06:15:28.255Z,65.05
2022-09-07T06:17:57.134Z,65.01
2022-09-07T06:20:26.003Z,64.62
2022-09-07T06:22:54.751Z,64.50
2022-09-07T06:25:23.638Z,64.35
2022-09-07T06:27:54.524Z,64.70
2022-09-07T06:30:23.343Z,65.07
2022-09-07T06:32:52.377Z,65.19
2022-09-07T06:35:21.391Z,65.27
2022-09-07T06:37:50.148Z,65.33
2022-09-07T06:40:19.042Z,65.56
2022-09-07T06:42:47.798Z,65.66
2022-09-07T06:45:17.948Z,66.11
2022-09-07T06:47:46.782Z,66.01
2022-09-07T06:50:15.719Z,66.50
2022-09-07T06:55:33.507Z,66.75
2022-09-07T06:58:02.308Z,66.16
2022-09-07T07:00:31.440Z,66.26
2022-09-07T07:03:01.342Z,66.15
2022-09-07T07:05:35.162Z,66.21
2022-09-07T07:08:04.132Z,66.19
2022-09-07T07:10:36.975Z,66.46
2022-09-07T07:13:05.721Z,66.47
2022-09-07T07:15:34.882Z,67.05
2022-09-07T07:18:19.968Z,66.74
2022-09-07T07:20:49.875Z,66.89
2022-09-07T07:23:18.756Z,67.04
2022-09-07T07:25:47.573Z,67.19
2022-09-07T07:31:10.408Z,66.46
2022-09-07T07:33:42.149Z,66.15
2022-09-07T07:36:28.109Z,66.33
2022-09-07T07:44:21.575Z,67.27
2022-09-07T07:46:53.404Z,67.46
2022-09-07T07:49:22.304Z,67.46
2022-09-07T07:54:39.933Z,67.41
2022-09-07T07:57:08.981Z,67.29
2022-09-07T07:59:37.741Z,67.17
2022-09-07T08:02:10.755Z,67.52
2022-09-07T08:04:39.722Z,67.67
2022-09-07T08:07:11.212Z,68.00
2022-09-07T08:09:41.702Z,68.23
2022-09-07T08:12:12.740Z,68.11
2022-09-07T08:14:42.022Z,68.29
2022-09-07T08:17:13.189Z,68.29
2022-09-07T08:19:42.712Z,68.27
2022-09-07T08:22:12.759Z,68.42
2022-09-07T08:24:41.534Z,67.78
2022-09-07T08:27:10.291Z,68.35
2022-09-07T08:29:39.026Z,68.50
2022-09-07T08:32:07.796Z,68.27
2022-09-07T08:34:37.934Z,68.34
2022-09-07T08:37:06.889Z,68.39
2022-09-07T08:39:36.666Z,68.53
2022-09-07T08:42:26.054Z,68.83
2022-09-07T08:45:12.363Z,69.19
2022-09-07T08:47:46.854Z,69.12
2022-09-07T08:50:22.617Z,69.02
2022-09-07T08:53:20.453Z,68.84
2022-09-07T08:56:13.126Z,68.92
2022-09-07T08:58:53.901Z,68.61
2022-09-07T09:01:41.586Z,68.33
2022-09-07T09:04:17.233Z,68.27
2022-09-07T09:07:20.745Z,68.46
2022-09-07T09:10:34.035Z,68.23
2022-09-07T09:13:26.440Z,67.64
2022-09-07T09:16:15.181Z,67.25
2022-09-07T09:18:59.631Z,67.78
2022-09-07T09:21:28.732Z,68.11
2022-09-07T09:24:06.501Z,68.07
2022-09-07T09:26:36.138Z,68.39
2022-09-07T09:29:19.666Z,68.59
2022-09-07T09:31:48.689Z,68.82
2022-09-07T09:34:23.666Z,68.86
2022-09-07T09:36:57.166Z,69.06
2022-09-07T09:39:34.981Z,68.94
2022-09-07T09:42:17.389Z,69.17
2022-09-07T09:44:46.374Z,68.88
2022-09-07T09:47:30.569Z,69.04
2022-09-07T09:50:05.692Z,68.80
2022-09-07T09:52:47.659Z,69.30
2022-09-07T09:55:35.327Z,68.97
2022-09-07T10:06:23.791Z,69.57
2022-09-07T10:09:01.207Z,70.08
2022-09-07T10:14:47.294Z,69.82
2022-09-07T10:17:41.921Z,70.18
2022-09-07T10:20:16.798Z,69.96
2022-09-07T10:22:57.693Z,70.29
2022-09-07T10:25:38.313Z,69.94
2022-09-07T10:28:19.248Z,70.18
2022-09-07T10:31:03.109Z,70.19
2022-09-07T10:36:53.272Z,70.40
2022-09-07T10:39:27.808Z,70.19
2022-09-07T10:42:22.898Z,69.98
2022-09-07T10:44:58.710Z,70.45
2022-09-07T10:47:39.342Z,70.13
2022-09-07T10:50:32.740Z,70.37
2022-09-07T10:53:23.849Z,70.45
2022-09-07T10:56:04.828Z,70.23
2022-09-07T10:59:06.842Z,70.51
2022-09-07T11:01:41.884Z,70.75
2022-09-07T11:04:35.108Z,70.80
2022-09-07T11:07:21.228Z,70.71
2022-09-07T11:10:02.132Z,71.30
2022-09-07T11:12:40.382Z,71.50
2022-09-07T11:15:23.016Z,71.25
2022-09-07T11:18:08.113Z,71.31
2022-09-07T11:20:55.834Z,71.58
2022-09-07T11:23:46.004Z,71.61
2022-09-07T11:26:41.126Z,71.25
2022-09-07T11:29:31.134Z,71.72
2022-09-07T11:32:08.222Z,71.77
2022-09-07T11:34:40.633Z,71.84
2022-09-07T11:37:24.246Z,72.13
2022-09-07T11:40:15.051Z,72.89
2022-09-07T11:43:18.939Z,73.00
2022-09-07T11:45:54.323Z,73.84
2022-09-07T11:48:43.216Z,74.13
2022-09-07T11:51:16.905Z,74.18
2022-09-07T11:53:54.834Z,74.43
2022-09-07T11:56:36.236Z,74.50
2022-09-07T11:59:14.239Z,74.88
2022-09-07T12:02:07.013Z,75.16
2022-09-07T12:05:01.567Z,75.15
2022-09-07T12:08:00.791Z,74.83
2022-09-07T12:10:35.509Z,74.93
2022-09-07T12:13:16.460Z,74.88
2022-09-07T12:16:06.116Z,75.45
2022-09-07T12:18:54.123Z,75.55
2022-09-07T12:21:48.007Z,75.70
2022-09-07T12:24:45.323Z,75.81
2022-09-07T12:27:23.265Z,76.09
2022-09-07T12:29:58.486Z,75.79
2022-09-07T12:32:57.383Z,76.07
2022-09-07T12:35:42.725Z,76.36
2022-09-07T12:38:14.596Z,76.46
2022-09-07T12:41:07.787Z,76.35
2022-09-07T12:44:06.808Z,76.13
2022-09-07T12:46:35.683Z,76.34
2022-09-07T12:49:33.691Z,76.23
2022-09-07T12:52:16.106Z,76.53
2022-09-07T12:55:23.499Z,76.49
2022-09-07T12:58:26.671Z,76.49
2022-09-07T13:01:36.916Z,76.57
2022-09-07T13:04:42.911Z,76.52
2022-09-07T13:07:32.734Z,76.22
2022-09-07T13:10:04.560Z,76.26
2022-09-07T13:13:00.374Z,76.67
2022-09-07T13:16:12.665Z,76.70
2022-09-07T13:18:44.402Z,76.78
2022-09-07T13:21:14.568Z,76.61
2022-09-07T13:23:48.374Z,76.77
2022-09-07T13:26:54.379Z,76.54
2022-09-07T13:29:32.997Z,76.61
2022-09-07T13:32:07.995Z,76.53
2022-09-07T13:34:40.778Z,76.58
2022-09-07T13:37:21.429Z,76.83
2022-09-07T13:39:55.428Z,76.86
2022-09-07T13:42:34.831Z,76.82
2022-09-07T13:45:07.915Z,76.87
2022-09-07T13:47:53.020Z,77.28
2022-09-07T13:50:33.344Z,77.25
2022-09-07T13:53:17.022Z,77.14
2022-09-07T13:55:58.028Z,77.51
2022-09-07T13:58:41.305Z,77.58
2022-09-07T14:01:23.719Z,77.74
2022-09-07T14:04:07.149Z,77.88
2022-09-07T14:06:38.310Z,77.83
2022-09-07T14:09:09.788Z,78.03
2022-09-07T14:11:52.120Z,77.93
2022-09-07T14:14:24.917Z,78.09
2022-09-07T14:17:03.133Z,78.09
2022-09-07T14:19:42.514Z,77.90
2022-09-07T14:22:18.508Z,77.86
2022-09-07T14:24:58.985Z,78.07
2022-09-07T14:27:33.595Z,77.93
2022-09-07T14:30:27.114Z,78.12
2022-09-07T14:32:58.795Z,78.09
2022-09-07T14:35:32.682Z,78.12
2022-09-07T14:38:12.191Z,78.13
2022-09-07T14:40:41.414Z,78.18
2022-09-07T14:43:51.385Z,77.93
2022-09-07T14:46:29.311Z,77.82
2022-09-07T14:49:02.617Z,77.77
2022-09-07T14:51:36.778Z,77.96
2022-09-07T14:54:09.506Z,78.01
2022-09-07T14:56:40.761Z,78.04
2022-09-07T14:59:33.585Z,78.28
2022-09-07T15:02:27.951Z,78.25
2022-09-07T15:05:15.286Z,78.24
2022-09-07T15:07:50.478Z,78.05
2022-09-07T15:10:23.232Z,77.92
2022-09-07T15:13:01.494Z,78.39
2022-09-07T15:15:33.633Z,78.03
2022-09-07T15:18:40.642Z,78.68
2022-09-07T15:21:10.173Z,78.00
2022-09-07T15:23:39.037Z,78.02
2022-09-07T15:27:01.805Z,78.13
2022-09-07T15:29:14.458Z,78.26
2022-09-07T15:31:49.718Z,78.31
2022-09-07T15:34:25.745Z,78.00
2022-09-07T15:36:57.439Z,78.12
2022-09-07T15:39:31.095Z,78.02
2022-09-07T15:42:59.010Z,78.29
2022-09-07T15:44:50.220Z,78.28
2022-09-07T15:50:08.691Z,78.25
2022-09-07T15:52:37.668Z,78.60
2022-09-07T15:55:07.168Z,78.60
2022-09-07T15:58:02.165Z,78.49
2022-09-07T16:00:25.685Z,78.65
2022-09-07T16:03:10.011Z,78.45
2022-09-07T16:05:44.785Z,78.71
2022-09-07T16:11:36.703Z,78.91
2022-09-07T16:14:05.680Z,78.54
2022-09-07T16:19:23.302Z,78.61
2022-09-07T16:21:52.153Z,78.63
2022-09-07T16:24:20.969Z,78.56
2022-09-07T16:26:49.700Z,78.59
2022-09-07T16:29:18.996Z,79.02
2022-09-07T16:34:36.797Z,78.87
2022-09-07T16:37:05.741Z,78.96
2022-09-07T16:39:35.232Z,78.72
2022-09-07T16:42:04.335Z,78.65
2022-09-07T16:44:35.589Z,78.58
2022-09-07T16:47:04.962Z,78.77
2022-09-07T16:49:33.707Z,78.96
2022-09-07T16:52:02.605Z,78.93
2022-09-07T16:54:32.626Z,79.25
2022-09-07T16:57:01.664Z,79.26
2022-09-07T16:59:30.535Z,79.46
2022-09-07T17:01:59.816Z,79.08
2022-09-07T17:04:29.532Z,79.26
2022-09-07T17:06:58.264Z,79.61
2022-09-07T17:09:27.259Z,79.41
2022-09-07T17:11:56.083Z,79.55
2022-09-07T17:14:24.734Z,79.91
2022-09-07T17:16:53.516Z,79.84
2022-09-07T17:19:30.451Z,80.05
2022-09-07T17:22:00.874Z,80.08
2022-09-07T17:24:32.096Z,80.47
2022-09-07T17:27:01.634Z,80.58
2022-09-07T17:29:38.383Z,81.09
2022-09-07T17:32:24.492Z,80.93
2022-09-07T17:34:54.620Z,81.04
2022-09-07T17:37:23.394Z,80.94
2022-09-07T17:39:52.458Z,80.82
2022-09-07T17:42:21.575Z,81.45
2022-09-07T17:44:52.727Z,81.27
2022-09-07T17:47:22.090Z,81.55
2022-09-07T17:49:50.831Z,81.78
2022-09-07T17:52:19.585Z,81.47
2022-09-07T17:54:48.385Z,81.96
2022-09-07T17:57:17.217Z,81.86
2022-09-07T18:02:38.698Z,81.88
2022-09-07T18:05:08.147Z,82.08
2022-09-07T18:07:36.909Z,82.57
2022-09-07T18:10:06.080Z,82.43
2022-09-07T18:12:34.817Z,82.05
2022-09-07T18:15:03.594Z,82.10
2022-09-07T18:17:32.354Z,82.48
2022-09-07T18:20:01.117Z,82.27
2022-09-07T18:22:31.628Z,82.36
2022-09-07T18:25:00.429Z,82.66
2022-09-07T18:27:29.338Z,82.33
2022-09-07T18:29:58.147Z,82.49
2022-09-07T18:32:27.125Z,82.10
2022-09-07T18:34:55.801Z,82.24
2022-09-07T18:37:24.608Z,82.28
2022-09-07T18:39:54.360Z,82.75
2022-09-07T18:42:23.242Z,82.36
2022-09-07T18:47:40.887Z,82.57
2022-09-07T18:50:10.204Z,82.03
2022-09-07T18:52:59.123Z,82.39
2022-09-07T18:55:28.080Z,82.20
2022-09-07T18:57:56.930Z,82.50
2022-09-07T19:00:26.403Z,82.57
2022-09-07T19:02:55.263Z,82.56
2022-09-07T19:08:13.653Z,82.48
2022-09-07T19:10:42.945Z,82.42
2022-09-07T19:13:11.658Z,82.55
2022-09-07T19:15:40.468Z,82.33
2022-09-07T19:18:10.204Z,82.99
2022-09-07T19:20:39.000Z,82.82
2022-09-07T19:23:07.811Z,82.58
2022-09-07T19:25:40.805Z,82.89
2022-09-07T19:28:09.785Z,82.88
2022-09-07T19:30:38.498Z,82.78
2022-09-07T19:33:10.530Z,83.07
2022-09-07T19:35:39.325Z,82.67
2022-09-07T19:38:08.044Z,82.98
2022-09-07T19:40:36.822Z,82.89
2022-09-07T19:43:06.206Z,82.95
2022-09-07T19:45:39.596Z,82.47
2022-09-07T19:48:08.330Z,82.39
2022-09-07T19:50:37.096Z,82.33
2022-09-07T19:53:06.094Z,82.40
2022-09-07T19:55:34.973Z,82.21
2022-09-07T19:58:03.660Z,82.29
2022-09-07T20:00:33.068Z,82.09
2022-09-07T20:03:02.119Z,82.12
2022-09-07T20:05:31.846Z,81.90
2022-09-07T20:08:00.608Z,81.85
2022-09-07T20:10:30.977Z,81.71
2022-09-07T20:12:59.728Z,81.72
2022-09-07T20:15:28.540Z,81.76
2022-09-07T20:17:57.296Z,81.16
2022-09-07T20:20:26.150Z,81.06
2022-09-07T20:22:54.916Z,80.92
2022-09-07T20:25:23.739Z,80.55
2022-09-07T20:27:52.391Z,80.56
2022-09-07T20:30:24.776Z,80.91
2022-09-07T20:32:53.526Z,80.79
2022-09-07T20:35:22.368Z,80.95
2022-09-07T20:37:51.059Z,81.14
2022-09-07T20:40:19.977Z,81.10
2022-09-07T20:42:48.817Z,81.27
2022-09-07T20:45:17.608Z,81.07
2022-09-07T20:47:46.447Z,80.96
2022-09-07T20:50:15.182Z,81.27
2022-09-07T20:52:44.050Z,80.93
2022-09-07T20:55:13.110Z,81.29
2022-09-07T20:57:41.805Z,80.88
2022-09-07T21:00:11.163Z,80.97
2022-09-07T21:02:40.282Z,81.06
2022-09-07T21:05:09.418Z,80.98
2022-09-07T21:07:41.826Z,80.93
2022-09-07T21:10:10.760Z,80.99
2022-09-07T21:12:39.640Z,81.26
2022-09-07T21:15:09.536Z,81.28
2022-09-07T21:17:39.425Z,81.16
2022-09-07T21:20:08.413Z,80.93
2022-09-07T21:22:37.131Z,81.13
2022-09-07T21:25:06.236Z,81.16
2022-09-07T21:27:38.754Z,80.93
2022-09-07T21:30:08.322Z,80.87
2022-09-07T21:32:37.077Z,80.93
2022-09-07T21:35:06.387Z,81.12
2022-09-07T21:37:35.148Z,81.18
2022-09-07T21:40:06.374Z,80.96
2022-09-07T21:42:35.434Z,80.88
2022-09-07T21:45:04.343Z,80.89
2022-09-07T21:47:33.343Z,80.26
2022-09-07T21:50:02.118Z,80.35
2022-09-07T21:52:32.205Z,80.67
2022-09-07T21:55:00.931Z,80.38
2022-09-07T21:57:31.757Z,80.31
2022-09-07T22:00:00.448Z,79.91
2022-09-07T22:02:30.714Z,79.77
2022-09-07T22:04:59.760Z,80.19
2022-09-07T22:07:28.512Z,79.84
2022-09-07T22:09:57.235Z,80.33
2022-09-07T22:12:26.034Z,79.89
2022-09-07T22:14:55.392Z,79.96
2022-09-07T22:17:24.088Z,79.87
2022-09-07T22:19:52.872Z,80.31
2022-09-07T22:22:21.628Z,79.93
2022-09-07T22:24:50.435Z,79.91
2022-09-07T22:27:19.121Z,79.57
2022-09-07T22:29:48.142Z,79.70
2022-09-07T22:32:16.859Z,79.46
2022-09-07T22:34:45.631Z,79.69
2022-09-07T22:37:14.507Z,79.93
2022-09-07T22:39:43.307Z,79.69
2022-09-07T22:42:11.994Z,79.80
2022-09-07T22:44:40.804Z,79.85
2022-09-07T22:47:11.242Z,79.77
2022-09-07T22:49:40.002Z,79.88
2022-09-07T22:52:08.740Z,79.98
2022-09-07T22:54:37.548Z,79.75
2022-09-07T22:57:06.467Z,79.80
2022-09-07T22:59:35.287Z,80.09
2022-09-07T23:02:05.296Z,80.20
2022-09-07T23:04:34.251Z,79.88
2022-09-07T23:07:03.685Z,80.28
2022-09-07T23:09:32.583Z,80.33
2022-09-07T23:12:01.249Z,80.48
2022-09-07T23:14:30.023Z,79.91
2022-09-07T23:16:58.775Z,80.43
2022-09-07T23:19:27.562Z,80.04
2022-09-07T23:21:56.699Z,80.13
2022-09-07T23:24:25.497Z,80.23
2022-09-07T23:26:54.214Z,79.58
2022-09-07T23:29:23.059Z,79.56
2022-09-07T23:31:52.274Z,79.35
2022-09-07T23:34:20.999Z,79.20
2022-09-07T23:36:49.733Z,78.60
2022-09-07T23:39:18.512Z,78.50
2022-09-07T23:41:47.147Z,78.37
2022-09-07T23:44:16.727Z,77.68
2022-09-07T23:46:45.577Z,77.61
2022-09-07T23:49:14.440Z,77.31
2022-09-07T23:51:43.171Z,77.40
2022-09-07T23:54:11.966Z,77.14
2022-09-07T23:56:40.708Z,76.89
2022-09-07T23:59:11.759Z,76.79
